createdAt,value
2022-08-26T03:55:32.127Z,100024.72
2022-08-26T03:58:35.202Z,100026.38
2022-08-26T04:01:37.423Z,100024.78
2022-08-26T04:04:40.410Z,100035.31
2022-08-26T04:07:45.338Z,100033.53
2022-08-26T04:10:47.858Z,100024.47
2022-08-26T04:13:53.317Z,100024.56
2022-08-26T04:16:56.377Z,100017.38
2022-08-26T04:19:58.523Z,100020.97
2022-08-26T04:23:01.496Z,100018.31
2022-08-26T04:26:04.525Z,100025.22
2022-08-26T04:29:11.035Z,100023.25
2022-08-26T04:32:13.141Z,100030.22
2022-08-26T04:35:15.534Z,100032.88
2022-08-26T04:38:19.910Z,100023.87
2022-08-26T04:41:23.677Z,100026.44
2022-08-26T04:44:29.463Z,100026.28
2022-08-26T04:47:32.494Z,100021.75
2022-08-26T04:50:35.081Z,100024.03
2022-08-26T04:53:37.632Z,100027.22
2022-08-26T04:56:43.119Z,100025.81
2022-08-26T04:59:45.560Z,100023.97
2022-08-26T05:02:48.246Z,100027.37
2022-08-26T05:05:54.358Z,100029.88
2022-08-26T05:08:56.598Z,100030.50
2022-08-26T05:12:00.843Z,100026.69
2022-08-26T05:15:03.090Z,100021.28
2022-08-26T05:18:06.973Z,100025.53
2022-08-26T05:21:16.834Z,100031.56
2022-08-26T05:24:19.214Z,100033.19
2022-08-26T05:27:21.728Z,100031.16
2022-08-26T05:30:24.173Z,100039.84
2022-08-26T05:33:26.325Z,100035.16
2022-08-26T05:36:31.177Z,100035.69
2022-08-26T05:39:33.792Z,100029.84
2022-08-26T05:42:36.721Z,100033.00
2022-08-26T05:45:45.889Z,100036.41
2022-08-26T05:48:48.798Z,100037.78
2022-08-26T05:51:50.884Z,100037.44
2022-08-26T05:54:54.230Z,100033.66
2022-08-26T05:57:56.305Z,100027.50
2022-08-26T06:01:03.602Z,100035.44
2022-08-26T06:04:07.426Z,100030.16
2022-08-26T06:07:09.948Z,100033.75
2022-08-26T06:10:31.697Z,100036.19
2022-08-26T06:13:35.046Z,100035.50
2022-08-26T06:16:40.878Z,100038.78
2022-08-26T06:19:43.212Z,100038.22
2022-08-26T06:23:04.021Z,100040.59
2022-08-26T06:26:06.600Z,100043.16
2022-08-26T06:29:16.373Z,100041.00
2022-08-26T06:32:27.230Z,100042.25
2022-08-26T06:35:29.550Z,100036.72
2022-08-26T06:38:31.697Z,100043.34
2022-08-26T06:41:36.630Z,100038.88
2022-08-26T06:44:41.568Z,100045.31
2022-08-26T06:47:47.107Z,100043.44
2022-08-26T06:51:01.738Z,100039.59
2022-08-26T06:54:05.930Z,100041.06
2022-08-26T06:57:09.614Z,100033.44
2022-08-26T07:00:12.920Z,100032.22
2022-08-26T07:03:16.091Z,100023.56
2022-08-26T07:06:19.594Z,100031.78
2022-08-26T07:09:24.175Z,100028.62
2022-08-26T07:12:26.758Z,100023.25
2022-08-26T07:15:31.202Z,100031.16
2022-08-26T07:18:36.012Z,100031.09
2022-08-26T07:21:41.454Z,100033.31
2022-08-26T07:24:43.893Z,100032.34
2022-08-26T07:27:46.401Z,100039.53
2022-08-26T07:30:56.734Z,100032.25
2022-08-26T07:34:00.549Z,100030.34
2022-08-26T07:37:08.746Z,100026.66
2022-08-26T07:40:12.121Z,100023.56
2022-08-26T07:43:15.816Z,100025.12
2022-08-26T07:46:20.785Z,100027.16
2022-08-26T07:49:31.138Z,100020.59
2022-08-26T07:52:33.311Z,100022.69
2022-08-26T07:55:37.381Z,100012.06
2022-08-26T07:58:40.244Z,100017.34
2022-08-26T08:01:45.167Z,100030.41
2022-08-26T08:04:48.632Z,100025.56
2022-08-26T08:07:53.683Z,100028.50
2022-08-26T08:11:15.987Z,100021.41
2022-08-26T08:14:22.018Z,100017.63
2022-08-26T08:17:24.787Z,100009.22
2022-08-26T08:20:28.326Z,100014.22
2022-08-26T08:23:31.492Z,100015.84
2022-08-26T08:26:35.171Z,100015.34
2022-08-26T08:29:37.515Z,100006.50
2022-08-26T08:32:39.634Z,100005.19
2022-08-26T08:35:42.644Z,100007.03
2022-08-26T08:38:45.741Z,100002.31
2022-08-26T08:41:50.935Z,99994.19
2022-08-26T08:44:57.174Z,100000.91
2022-08-26T08:48:06.867Z,99988.84
2022-08-26T08:51:48.140Z,99997.66
2022-08-26T08:54:50.491Z,99993.44
2022-08-26T08:58:19.155Z,99995.16
2022-08-26T09:01:37.636Z,99990.41
2022-08-26T09:04:59.353Z,99983.09
2022-08-26T09:08:06.753Z,99982.03
2022-08-26T09:11:14.798Z,99985.37
2022-08-26T09:14:17.640Z,99982.03
2022-08-26T09:17:38.796Z,99976.78
2022-08-26T09:20:53.384Z,99978.13
2022-08-26T09:23:56.630Z,99981.66
2022-08-26T09:26:59.440Z,99969.87
2022-08-26T09:30:01.565Z,99970.53
2022-08-26T09:33:11.114Z,99972.09
2022-08-26T09:36:24.810Z,99960.44
2022-08-26T09:39:37.795Z,99956.59
2022-08-26T09:42:40.097Z,99958.88
2022-08-26T09:45:50.070Z,99952.31
2022-08-26T09:48:53.334Z,99962.00
2022-08-26T09:52:15.002Z,99949.84
2022-08-26T09:55:23.706Z,99954.78
2022-08-26T09:58:41.887Z,99956.91
2022-08-26T10:01:45.032Z,99952.28
2022-08-26T10:04:54.155Z,99956.50
2022-08-26T10:07:57.816Z,99948.00
2022-08-26T10:11:06.138Z,99952.09
2022-08-26T10:14:19.061Z,99943.47
2022-08-26T10:17:34.120Z,99945.81
2022-08-26T10:20:41.675Z,99935.28
2022-08-26T10:24:03.498Z,99940.44
2022-08-26T10:27:51.348Z,99946.88
2022-08-26T10:31:16.649Z,99933.25
2022-08-26T10:34:22.241Z,99939.87
2022-08-26T10:37:37.177Z,99927.38
2022-08-26T10:40:55.097Z,99921.59
2022-08-26T10:44:02.666Z,99921.00
2022-08-26T10:47:16.334Z,99921.59
2022-08-26T10:50:24.777Z,99913.12
2022-08-26T10:53:46.629Z,99912.03
2022-08-26T10:57:13.446Z,99910.50
2022-08-26T11:00:40.256Z,99904.63
2022-08-26T11:04:00.479Z,99903.81
2022-08-26T11:07:40.849Z,99898.78
2022-08-26T11:10:43.081Z,99902.81
2022-08-26T11:14:01.164Z,99892.56
2022-08-26T11:17:03.465Z,99890.53
2022-08-26T11:20:09.175Z,99891.97
2022-08-26T11:23:28.197Z,99892.75
2022-08-26T11:26:55.033Z,99889.41
2022-08-26T11:30:06.960Z,99875.00
2022-08-26T11:33:48.887Z,99885.34
2022-08-26T11:36:58.139Z,99875.41
2022-08-26T11:40:04.619Z,99867.34
2022-08-26T11:43:23.443Z,99873.38
2022-08-26T11:46:28.901Z,99863.19
2022-08-26T11:49:32.869Z,99868.59
2022-08-26T11:52:35.841Z,99855.06
2022-08-26T11:55:43.373Z,99852.81
2022-08-26T11:58:47.766Z,99841.91
2022-08-26T12:01:53.370Z,99847.50
2022-08-26T12:04:56.393Z,99841.00
2022-08-26T12:08:07.301Z,99842.81
2022-08-26T12:11:31.140Z,99848.25
2022-08-26T12:14:33.958Z,99835.78
2022-08-26T12:17:37.063Z,99836.97
2022-08-26T12:20:54.257Z,99835.41
2022-08-26T12:23:59.303Z,99826.03
2022-08-26T12:27:23.653Z,99820.84
2022-08-26T12:30:26.420Z,99817.19
2022-08-26T12:33:29.245Z,99815.97
2022-08-26T12:36:42.874Z,99814.12
2022-08-26T12:39:47.868Z,99811.81
2022-08-26T12:42:50.389Z,99807.22
2022-08-26T12:46:02.042Z,99805.88
2022-08-26T12:49:04.462Z,99801.06
2022-08-26T12:52:09.640Z,99796.66
2022-08-26T12:55:21.850Z,99790.38
2022-08-26T12:58:38.824Z,99788.63
2022-08-26T13:01:44.253Z,99785.44
2022-08-26T13:04:46.464Z,99786.91
2022-08-26T13:08:08.634Z,99784.66
2022-08-26T13:11:12.797Z,99779.25
2022-08-26T13:14:23.827Z,99779.00
2022-08-26T13:17:28.354Z,99766.53
2022-08-26T13:20:35.275Z,99764.41
2022-08-26T13:23:41.917Z,99764.66
2022-08-26T13:26:46.969Z,99759.75
2022-08-26T13:29:51.087Z,99756.50
2022-08-26T13:32:59.642Z,99754.25
2022-08-26T13:36:01.803Z,99752.38
2022-08-26T13:39:06.066Z,99750.44
2022-08-26T13:42:08.933Z,99743.41
2022-08-26T13:45:11.571Z,99743.75
2022-08-26T13:48:13.627Z,99735.41
2022-08-26T13:51:18.484Z,99742.72
2022-08-26T13:54:21.183Z,99735.97
2022-08-26T13:57:24.643Z,99738.22
2022-08-26T14:00:26.758Z,99736.25
2022-08-26T14:03:29.146Z,99735.50
2022-08-26T14:06:31.586Z,99725.75
2022-08-26T14:09:38.226Z,99727.41
2022-08-26T14:12:40.513Z,99727.13
2022-08-26T14:15:42.849Z,99723.09
2022-08-26T14:18:50.027Z,99720.88
2022-08-26T14:21:53.040Z,99725.09
2022-08-26T14:24:55.197Z,99734.41
2022-08-26T14:27:57.534Z,99738.72
2022-08-26T14:31:00.113Z,99735.19
2022-08-26T14:34:05.603Z,99738.28
2022-08-26T14:37:09.216Z,99743.47
2022-08-26T14:40:14.311Z,99739.19
2022-08-26T14:43:16.396Z,99734.91
2022-08-26T14:46:18.805Z,99743.34
2022-08-26T14:49:22.382Z,99739.31
2022-08-26T14:52:25.408Z,99738.97
2022-08-26T14:55:29.452Z,99737.62
2022-08-26T14:58:35.571Z,99735.09
2022-08-26T15:01:37.745Z,99731.47
2022-08-26T15:04:41.146Z,99730.28
2022-08-26T15:07:43.263Z,99732.34
2022-08-26T15:10:45.603Z,99726.84
2022-08-26T15:13:48.232Z,99714.31
2022-08-26T15:16:55.796Z,99718.87
